Time;durP1;ratioP1;P1;durP2;ratioP2;P2;SDS_P1;SDS_P2;PMS_P1;PMS_P2;Temp;Humidity;BMP_temperature;BMP_pressure;BME280_temperature;BME280_humidity;BME280_pressure;Samples;Min_cycle;Max_cycle;Signal;HPM_P1;HPM_P2
2021/12/24 00:01:39;;;;;;;38.50;17.52;;;5.60;99.90;;;;;;4995608;28;20049;-75
2021/12/24 00:04:09;;;;;;;29.83;16.10;;;5.50;99.90;;;;;;4981071;28;20108;-74
2021/12/24 00:06:35;;;;;;;32.55;16.45;;;5.60;99.90;;;;;;4979690;28;20105;-74
2021/12/24 00:09:01;;;;;;;34.70;16.45;;;7.50;99.90;;;;;;4980464;28;20050;-74
2021/12/24 00:11:26;;;;;;;25.83;14.88;;;5.60;99.90;;;;;;5013347;28;20117;-72
2021/12/24 00:13:53;;;;;;;37.58;16.80;;;5.10;99.90;;;;;;4995469;28;20046;-73
2021/12/24 00:16:24;;;;;;;37.35;16.90;;;5.50;99.90;;;;;;4995510;28;20472;-73
2021/12/24 00:18:57;;;;;;;39.28;17.60;;;5.50;99.90;;;;;;4996129;28;20082;-73
2021/12/24 00:35:22;;;;;;;41.38;16.45;;;5.60;99.90;;;;;;5005551;28;20773;-74
2021/12/24 00:37:48;;;;;;;38.70;16.45;;;5.70;99.90;;;;;;5013871;28;20054;-73
2021/12/24 00:40:18;;;;;;;30.92;13.98;;;6.50;99.90;;;;;;4980254;28;20042;-74
2021/12/24 00:42:53;;;;;;;33.05;15.07;;;5.70;99.90;;;;;;5012862;28;20129;-73
2021/12/24 00:45:20;;;;;;;;;;;5.60;99.90;;;;;;4996052;28;20441;-74
2021/12/24 00:47:47;;;;;;;31.63;14.13;;;5.80;99.90;;;;;;5011345;28;19925;-75
2021/12/24 00:50:18;;;;;;;36.40;14.90;;;5.60;99.90;;;;;;4979887;28;20045;-74
2021/12/24 00:52:48;;;;;;;37.85;15.27;;;5.80;99.90;;;;;;4995959;28;20053;-75
2021/12/24 00:55:22;;;;;;;33.67;13.23;;;5.80;99.90;;;;;;5012415;28;20045;-75
2021/12/24 00:57:53;;;;;;;36.22;14.90;;;5.70;99.90;;;;;;4995950;28;20485;-73
2021/12/24 01:00:25;;;;;;;26.10;12.10;;;5.80;99.90;;;;;;5011951;28;20045;-74
2021/12/24 01:02:53;;;;;;;26.17;12.73;;;5.80;99.90;;;;;;4979018;28;20103;-77
2021/12/24 01:05:20;;;;;;;32.10;14.18;;;5.80;99.90;;;;;;4995199;28;20080;-74
2021/12/24 01:07:49;;;;;;;25.40;12.15;;;5.90;99.90;;;;;;4979260;28;20490;-73
2021/12/24 01:10:18;;;;;;;28.13;12.95;;;5.90;99.90;;;;;;5012514;28;20049;-74
2021/12/24 01:12:44;;;;;;;23.42;11.63;;;6.00;99.90;;;;;;4978956;28;20409;-76
2021/12/24 01:15:10;;;;;;;26.75;11.70;;;6.00;99.90;;;;;;4976115;28;20058;-75
2021/12/24 01:20:11;;;;;;;24.13;10.90;;;5.90;99.90;;;;;;5016963;28;20050;-75
2021/12/24 01:23:26;;;;;;;25.10;11.40;;;5.90;99.90;;;;;;5023511;28;20042;-75
2021/12/24 01:25:45;;;;;;;25.80;11.80;;;5.90;99.90;;;;;;4991382;28;20046;-74
2021/12/24 01:44:29;;;;;;;17.05;9.07;;;6.10;99.90;;;;;;4991460;28;20050;-80
2021/12/24 01:47:01;;;;;;;16.00;8.32;;;6.50;99.90;;;;;;4993082;28;20050;-75
2021/12/24 01:49:26;;;;;;;16.90;9.02;;;6.10;99.90;;;;;;4990984;28;20050;-75
2021/12/24 01:51:53;;;;;;;18.05;9.38;;;6.20;99.90;;;;;;4990415;28;20042;-75
2021/12/24 01:54:19;;;;;;;15.75;7.53;;;6.10;99.90;;;;;;4990795;28;20042;-74
2021/12/24 01:56:46;;;;;;;22.80;9.75;;;6.10;99.90;;;;;;4991359;28;20116;-75
2021/12/24 01:59:12;;;;;;;21.83;9.95;;;6.20;99.90;;;;;;4990919;28;20041;-76
2021/12/24 02:01:38;;;;;;;17.23;9.27;;;6.20;99.90;;;;;;4991706;28;20089;-75
2021/12/24 02:04:04;;;;;;;18.48;9.00;;;6.30;99.90;;;;;;4983625;28;20034;-75
2021/12/24 02:06:30;;;;;;;21.02;9.25;;;6.40;99.90;;;;;;4991232;28;20497;-76
2021/12/24 02:08:56;;;;;;;23.42;9.95;;;6.40;99.90;;;;;;4974965;28;20046;-74
2021/12/24 02:11:22;;;;;;;23.75;10.27;;;6.50;99.90;;;;;;4990129;28;20049;-75
2021/12/24 02:13:48;;;;;;;23.40;10.38;;;6.50;99.90;;;;;;4991918;28;20046;-76
2021/12/24 02:29:58;;;;;;;20.90;10.02;;;6.70;99.90;;;;;;4992183;28;20410;-74
2021/12/24 02:32:24;;;;;;;21.05;9.90;;;6.70;99.90;;;;;;4990388;28;20042;-74
2021/12/24 02:34:50;;;;;;;20.20;10.38;;;6.10;99.90;;;;;;4973574;28;20049;-74
2021/12/24 02:37:16;;;;;;;25.17;11.07;;;6.60;99.90;;;;;;4992096;28;20038;-74
2021/12/24 02:39:42;;;;;;;22.73;9.93;;;6.50;99.90;;;;;;4990770;28;20497;-75
2021/12/24 02:42:18;;;;;;;17.85;9.20;;;6.80;99.90;;;;;;4991588;28;20038;-76
2021/12/24 02:44:46;;;;;;;18.77;9.00;;;6.60;99.90;;;;;;4991054;28;20038;-74
2021/12/24 02:47:38;;;;;;;26.92;12.20;;;6.90;99.90;;;;;;4990184;28;20105;-75
2021/12/24 02:55:14;;;;;;;15.05;8.40;;;8.20;99.90;;;;;;4984642;28;20042;-75
2021/12/24 02:57:43;;;;;;;16.10;8.65;;;7.60;99.90;;;;;;4973974;28;20089;-74
2021/12/24 03:00:19;;;;;;;13.40;7.85;;;7.10;99.90;;;;;;4990699;28;20501;-75
2021/12/24 03:02:46;;;;;;;19.48;9.02;;;7.20;99.90;;;;;;4974306;28;20054;-75
2021/12/24 03:05:16;;;;;;;24.42;9.55;;;7.20;99.90;;;;;;4992031;28;20042;-75
2021/12/24 03:07:42;;;;;;;26.33;10.55;;;7.20;99.90;;;;;;4990291;28;20050;-76
2021/12/24 03:10:13;;;;;;;24.27;10.95;;;7.00;99.90;;;;;;4989618;28;20038;-75
2021/12/24 03:12:40;;;;;;;32.40;11.30;;;7.20;99.90;;;;;;4990337;28;20042;-76
2021/12/24 03:15:07;;;;;;;36.13;12.45;;;7.20;99.90;;;;;;4982346;28;20046;-75
2021/12/24 03:17:33;;;;;;;46.53;15.73;;;7.30;99.90;;;;;;4973792;28;20050;-74
2021/12/24 03:20:05;;;;;;;41.90;13.75;;;7.30;99.90;;;;;;4992173;28;20474;-74
2021/12/24 03:22:46;;;;;;;43.95;14.73;;;7.30;99.90;;;;;;4975331;28;20140;-75
2021/12/24 03:25:12;;;;;;;52.22;15.25;;;7.30;99.90;;;;;;4978096;28;20101;-75
2021/12/24 03:27:38;;;;;;;53.95;15.70;;;7.30;99.90;;;;;;4994003;28;20050;-75
2021/12/24 03:30:04;;;;;;;54.03;15.55;;;6.60;99.90;;;;;;4993471;28;20474;-75
2021/12/24 03:32:30;;;;;;;69.03;15.65;;;7.40;99.90;;;;;;4977600;28;20410;-75
2021/12/24 03:34:55;;;;;;;75.28;16.95;;;7.50;99.90;;;;;;4994343;28;20050;-75
2021/12/24 03:37:21;;;;;;;47.38;13.27;;;7.50;99.90;;;;;;4994226;28;20481;-75
2021/12/24 03:39:46;;;;;;;72.88;18.20;;;7.30;99.90;;;;;;4993814;28;20042;-74
2021/12/24 03:42:12;;;;;;;63.97;16.33;;;7.60;99.90;;;;;;4994067;28;20053;-74
2021/12/24 03:44:43;;;;;;;57.15;14.63;;;7.70;99.90;;;;;;4992728;28;20407;-75
2021/12/24 03:47:15;;;;;;;42.42;12.20;;;8.90;99.90;;;;;;4986911;28;20061;-75
2021/12/24 03:49:55;;;;;;;43.67;13.73;;;7.80;99.90;;;;;;4993718;28;20069;-74
2021/12/24 03:55:06;;;;;;;58.83;16.42;;;7.80;99.90;;;;;;4993958;28;20433;-75
2021/12/24 03:57:36;;;;;;;79.88;19.13;;;7.90;99.90;;;;;;4992019;28;20085;-75
2021/12/24 04:00:22;;;;;;;48.83;13.52;;;7.90;99.90;;;;;;4993525;28;20097;-75
2021/12/24 04:02:48;;;;;;;50.65;15.35;;;9.40;99.90;;;;;;4977238;28;20066;-74
2021/12/24 04:05:15;;;;;;;27.55;10.48;;;7.90;99.90;;;;;;4976661;28;20034;-75
2021/12/24 04:07:40;;;;;;;35.00;12.70;;;7.90;99.90;;;;;;4993253;28;20133;-75
2021/12/24 04:10:24;;;;;;;53.70;16.33;;;8.00;99.90;;;;;;4994472;28;20117;-75
2021/12/24 04:12:50;;;;;;;28.90;11.18;;;8.00;99.90;;;;;;4993069;28;20082;-75
2021/12/24 04:15:16;;;;;;;48.83;15.55;;;8.00;99.90;;;;;;4976796;28;20085;-74
2021/12/24 04:17:44;;;;;;;38.97;15.50;;;8.10;99.90;;;;;;4992883;28;20089;-75
2021/12/24 04:25:26;;;;;;;39.58;16.33;;;8.10;99.90;;;;;;4992648;28;20105;-75
2021/12/24 04:27:54;;;;;;;28.75;13.68;;;8.10;99.90;;;;;;4993056;28;20144;-76
2021/12/24 04:30:25;;;;;;;29.45;15.10;;;7.90;99.90;;;;;;4992583;28;20042;-76
2021/12/24 04:33:06;;;;;;;33.28;15.65;;;7.60;99.90;;;;;;4992191;28;20066;-76
2021/12/24 04:35:41;;;;;;;33.83;14.07;;;8.20;99.90;;;;;;4993626;28;20057;-76
2021/12/24 04:38:30;;;;;;;41.50;17.52;;;8.20;99.90;;;;;;4994244;28;20089;-76
2021/12/24 04:52:00;;;;;;;40.67;18.60;;;8.30;99.90;;;;;;4992815;28;20137;-75
2021/12/24 05:05:50;;;;;;;28.88;15.48;;;8.30;99.90;;;;;;4914174;29;20056;-76
2021/12/24 05:08:20;;;;;;;31.98;16.10;;;8.30;99.90;;;;;;4902440;29;20055;-75
2021/12/24 05:10:48;;;;;;;33.55;16.67;;;8.20;99.90;;;;;;4957142;28;20058;-76
2021/12/24 05:13:16;;;;;;;35.75;16.23;;;8.30;99.90;;;;;;4976271;28;20047;-76
2021/12/24 05:15:44;;;;;;;39.42;17.15;;;8.30;99.90;;;;;;5007016;28;20108;-76
2021/12/24 05:18:27;;;;;;;34.50;16.70;;;8.10;99.90;;;;;;4987982;28;20042;-76
2021/12/24 05:23:37;;;;;;;42.38;18.65;;;8.40;99.90;;;;;;4993996;28;20490;-76
2021/12/24 05:26:03;;;;;;;36.67;18.52;;;9.70;99.90;;;;;;4978764;28;20080;-76
2021/12/24 05:28:28;;;;;;;34.88;17.77;;;9.70;99.90;;;;;;4994723;28;20076;-77
2021/12/24 05:30:54;;;;;;;43.45;20.02;;;8.30;99.90;;;;;;5011766;28;20038;-75
2021/12/24 05:33:20;;;;;;;48.17;19.88;;;8.30;99.90;;;;;;5011869;28;20486;-76
2021/12/24 05:35:46;;;;;;;43.97;19.00;;;8.30;99.90;;;;;;4978910;28;20038;-75
2021/12/24 05:38:14;;;;;;;29.33;15.68;;;8.30;99.90;;;;;;4995017;28;20428;-76
2021/12/24 05:40:41;;;;;;;35.35;13.98;;;8.40;99.90;;;;;;4977903;28;20077;-75
2021/12/24 05:43:06;;;;;;;47.05;16.92;;;8.40;99.90;;;;;;5011790;28;20046;-77
2021/12/24 05:45:32;;;;;;;30.92;14.38;;;8.30;99.90;;;;;;4993328;28;20088;-77
2021/12/24 05:47:58;;;;;;;45.17;16.45;;;8.10;99.90;;;;;;4978355;28;20038;-78
2021/12/24 05:50:24;;;;;;;38.20;14.07;;;8.30;99.90;;;;;;4976987;28;20046;-77
2021/12/24 05:52:50;;;;;;;40.90;12.95;;;8.40;99.90;;;;;;4994539;28;20130;-75
2021/12/24 05:55:15;;;;;;;35.53;14.38;;;8.40;99.90;;;;;;4978338;28;20042;-75
2021/12/24 05:57:41;;;;;;;36.90;13.82;;;8.40;99.90;;;;;;4993767;28;20057;-77
2021/12/24 06:00:08;;;;;;;39.15;13.13;;;8.30;99.90;;;;;;4994608;28;20077;-78
2021/12/24 06:02:34;;;;;;;29.88;11.32;;;8.30;99.90;;;;;;4994258;28;20371;-75
2021/12/24 06:05:00;;;;;;;30.80;11.75;;;8.40;99.90;;;;;;5011540;28;20053;-78
2021/12/24 06:07:26;;;;;;;32.55;10.88;;;8.40;99.90;;;;;;4994273;28;20042;-76
2021/12/24 06:09:52;;;;;;;31.00;11.77;;;8.40;99.90;;;;;;4978321;28;20095;-76
2021/12/24 06:12:18;;;;;;;30.63;11.40;;;8.40;99.90;;;;;;4993349;28;20074;-74
2021/12/24 06:14:46;;;;;;;25.77;10.57;;;8.40;99.90;;;;;;4978336;28;20125;-75
2021/12/24 06:17:16;;;;;;;36.35;10.55;;;8.30;99.90;;;;;;5003988;28;20045;-79
2021/12/24 06:19:42;;;;;;;28.50;8.82;;;8.30;99.90;;;;;;4977846;28;20049;-75
2021/12/24 06:22:09;;;;;;;37.72;9.43;;;8.30;99.90;;;;;;4978054;28;20045;-78
2021/12/24 06:24:34;;;;;;;46.17;12.40;;;8.30;99.90;;;;;;5011560;28;20121;-79
2021/12/24 06:27:00;;;;;;;34.67;9.10;;;8.30;99.90;;;;;;4993775;28;20141;-78
2021/12/24 06:29:26;;;;;;;35.80;7.75;;;8.30;99.90;;;;;;5011496;28;20371;-77
2021/12/24 06:31:52;;;;;;;31.83;9.52;;;8.30;99.90;;;;;;4994011;28;20044;-77
2021/12/24 06:34:18;;;;;;;27.92;8.45;;;8.30;99.90;;;;;;4993607;28;20131;-74
2021/12/24 06:36:48;;;;;;;27.80;8.02;;;8.20;99.90;;;;;;4978405;28;20053;-75
2021/12/24 06:39:15;;;;;;;32.00;8.98;;;8.30;99.90;;;;;;4986471;28;20117;-77
2021/12/24 06:41:40;;;;;;;31.33;8.85;;;8.20;99.90;;;;;;5011303;28;20108;-80
2021/12/24 06:44:10;;;;;;;26.45;8.57;;;7.90;99.90;;;;;;4978179;28;20050;-80
2021/12/24 06:46:36;;;;;;;29.25;8.20;;;8.40;99.90;;;;;;4992907;28;20049;-80
2021/12/24 06:49:02;;;;;;;24.58;7.20;;;8.40;99.90;;;;;;4978163;28;20133;-76
2021/12/24 06:51:28;;;;;;;33.50;9.10;;;8.40;99.90;;;;;;5011302;28;20046;-78
2021/12/24 06:53:54;;;;;;;29.95;8.70;;;9.60;99.90;;;;;;4993470;28;20038;-75
2021/12/24 06:56:21;;;;;;;31.73;10.02;;;8.00;99.90;;;;;;4977829;28;20386;-77
2021/12/24 06:58:46;;;;;;;26.08;8.98;;;8.30;99.90;;;;;;4998012;28;20053;-78
2021/12/24 07:01:12;;;;;;;30.42;8.00;;;8.30;99.90;;;;;;5014737;28;20038;-75
2021/12/24 07:03:38;;;;;;;28.52;8.18;;;8.20;99.90;;;;;;4981181;28;20557;-78
2021/12/24 07:06:04;;;;;;;31.40;9.27;;;7.70;99.90;;;;;;4998002;28;20045;-77
2021/12/24 07:08:30;;;;;;;30.33;8.43;;;8.20;99.90;;;;;;5014191;28;20046;-80
2021/12/24 07:10:56;;;;;;;15.50;5.65;;;8.20;99.90;;;;;;4997665;28;20120;-78
2021/12/24 07:13:22;;;;;;;24.92;8.93;;;8.20;99.90;;;;;;5014837;28;20513;-78
2021/12/24 07:15:48;;;;;;;21.40;7.85;;;8.20;99.90;;;;;;4980589;28;20054;-75
2021/12/24 07:18:13;;;;;;;27.33;7.25;;;8.20;99.90;;;;;;4981243;28;20042;-80
2021/12/24 07:20:39;;;;;;;20.52;5.10;;;8.20;99.90;;;;;;4980492;28;20053;-76
2021/12/24 07:23:05;;;;;;;22.98;6.35;;;8.20;99.90;;;;;;4996780;28;20088;-76
2021/12/24 07:25:31;;;;;;;22.48;5.93;;;7.80;99.90;;;;;;5014597;28;20049;-80
2021/12/24 07:27:56;;;;;;;24.08;7.15;;;8.20;99.90;;;;;;4981589;28;20038;-78
2021/12/24 07:30:22;;;;;;;21.38;5.90;;;8.20;99.90;;;;;;4996127;28;20049;-79
2021/12/24 07:32:48;;;;;;;23.92;6.40;;;8.20;99.90;;;;;;5014760;28;20123;-76
2021/12/24 07:35:15;;;;;;;22.45;5.70;;;8.00;99.90;;;;;;4981233;28;20085;-77
2021/12/24 07:37:41;;;;;;;20.08;5.53;;;8.10;99.90;;;;;;4996259;28;20046;-76
2021/12/24 07:40:10;;;;;;;18.25;6.28;;;8.30;99.90;;;;;;4980558;28;20553;-78
2021/12/24 07:42:37;;;;;;;21.20;5.63;;;8.10;99.90;;;;;;4995934;28;20260;-79
2021/12/24 07:45:05;;;;;;;22.88;6.22;;;8.10;99.90;;;;;;5014718;28;20124;-77
2021/12/24 07:47:40;;;;;;;24.50;5.30;;;8.10;99.90;;;;;;4996480;28;20087;-80
2021/12/24 07:53:09;;;;;;;21.33;6.82;;;8.20;99.90;;;;;;4985728;28;20145;-80
2021/12/24 07:55:36;;;;;;;22.38;5.57;;;8.10;99.90;;;;;;4996277;28;20088;-78
2021/12/24 07:58:04;;;;;;;25.73;5.28;;;8.10;99.90;;;;;;5013555;28;20390;-79
2021/12/24 08:00:30;;;;;;;20.58;5.97;;;8.10;99.90;;;;;;4996052;28;20038;-80
2021/12/24 08:02:57;;;;;;;20.50;4.82;;;8.00;99.90;;;;;;4997027;28;20048;-79
2021/12/24 08:05:25;;;;;;;24.70;5.82;;;8.10;99.90;;;;;;4979351;28;20491;-76
2021/12/24 08:07:52;;;;;;;18.35;4.57;;;8.10;99.90;;;;;;4996183;28;20054;-78
2021/12/24 08:10:19;;;;;;;20.63;5.28;;;8.10;99.90;;;;;;4995057;28;20049;-76
2021/12/24 08:12:45;;;;;;;17.40;4.65;;;7.80;99.90;;;;;;5012886;28;20116;-80
2021/12/24 08:15:11;;;;;;;19.27;5.85;;;8.10;99.90;;;;;;4993232;28;20434;-85
2021/12/24 08:17:37;;;;;;;17.15;5.68;;;8.00;99.90;;;;;;4991485;28;20496;-75
2021/12/24 08:20:05;;;;;;;15.50;5.47;;;8.10;99.90;;;;;;4992894;28;20043;-76
2021/12/24 08:22:31;;;;;;;13.02;4.60;;;8.10;99.90;;;;;;4976568;28;20532;-76
2021/12/24 08:24:56;;;;;;;18.00;4.85;;;8.10;99.90;;;;;;4990833;28;20058;-77
2021/12/24 08:27:22;;;;;;;22.50;4.60;;;8.10;99.90;;;;;;4992213;28;20046;-79
2021/12/24 08:29:48;;;;;;;16.23;5.43;;;7.90;99.90;;;;;;4992455;28;20046;-80
2021/12/24 08:32:14;;;;;;;19.77;5.32;;;8.10;99.90;;;;;;4976100;28;20049;-78
2021/12/24 08:34:40;;;;;;;24.00;5.32;;;9.50;99.90;;;;;;4991647;28;20042;-82
2021/12/24 08:37:08;;;;;;;19.93;5.07;;;8.00;99.90;;;;;;4302164;28;10000841;-77
2021/12/24 08:39:34;;;;;;;20.65;5.47;;;9.30;99.90;;;;;;4988705;28;20301;-81
2021/12/24 08:41:59;;;;;;;21.65;5.63;;;8.00;99.90;;;;;;4972293;28;20062;-81
2021/12/24 08:44:31;;;;;;;15.95;3.78;;;7.80;99.90;;;;;;4968240;28;20038;-81
2021/12/24 08:47:01;;;;;;;15.48;4.82;;;7.70;99.90;;;;;;5019664;28;20050;-75
2021/12/24 08:49:27;;;;;;;14.88;3.78;;;7.80;99.90;;;;;;4989773;28;20054;-79
2021/12/24 08:51:54;;;;;;;17.63;3.85;;;9.30;99.90;;;;;;4990534;28;20050;-77
2021/12/24 08:54:21;;;;;;;15.10;3.88;;;8.20;99.90;;;;;;4989022;28;20129;-75
2021/12/24 08:56:48;;;;;;;13.65;3.70;;;7.70;99.90;;;;;;4990444;28;20050;-81
2021/12/24 08:59:14;;;;;;;8.80;2.63;;;8.00;99.90;;;;;;4968402;28;20050;-77
2021/12/24 09:01:43;;;;;;;11.98;3.45;;;7.70;99.90;;;;;;4972972;28;20061;-78
2021/12/24 09:04:13;;;;;;;16.98;3.47;;;8.00;99.90;;;;;;4960121;28;20102;-77
2021/12/24 09:06:39;;;;;;;10.00;3.20;;;7.50;99.90;;;;;;4973609;28;20082;-82
2021/12/24 09:09:06;;;;;;;12.48;3.63;;;8.10;99.90;;;;;;5005794;28;20053;-82
2021/12/24 09:11:37;;;;;;;10.00;3.15;;;7.60;99.90;;;;;;4959354;28;20049;-76
2021/12/24 09:14:03;;;;;;;10.60;3.15;;;8.00;99.90;;;;;;4990069;28;20035;-75
2021/12/24 09:16:30;;;;;;;8.73;2.78;;;7.80;99.90;;;;;;4976665;28;20049;-75
2021/12/24 09:19:06;;;;;;;11.10;3.53;;;7.90;99.90;;;;;;4992526;28;20050;-75
2021/12/24 09:21:33;;;;;;;14.20;4.43;;;8.00;99.90;;;;;;4991214;28;20058;-78
2021/12/24 09:23:59;;;;;;;14.15;4.28;;;7.90;99.90;;;;;;5009973;28;20049;-79
2021/12/24 09:26:31;;;;;;;12.05;3.30;;;8.00;99.90;;;;;;4976191;28;20478;-81
2021/12/24 09:28:57;;;;;;;8.50;3.65;;;8.00;99.90;;;;;;5009327;28;20301;-80
2021/12/24 09:31:24;;;;;;;15.98;4.18;;;7.60;99.90;;;;;;4985823;28;20712;-80
2021/12/24 09:33:51;;;;;;;11.85;3.47;;;7.50;99.90;;;;;;4992827;28;20457;-76
2021/12/24 09:36:23;;;;;;;12.63;3.78;;;7.90;99.90;;;;;;4992278;28;20441;-79
2021/12/24 09:38:49;;;;;;;9.43;3.83;;;8.10;99.90;;;;;;4996321;28;20080;-78
2021/12/24 09:41:15;;;;;;;10.48;3.65;;;7.80;99.90;;;;;;4976860;28;20065;-81
2021/12/24 09:43:41;;;;;;;10.20;3.42;;;7.70;99.90;;;;;;4986400;28;20081;-76
2021/12/24 09:46:06;;;;;;;8.20;3.53;;;7.70;99.90;;;;;;4991908;28;20073;-74
2021/12/24 09:48:32;;;;;;;12.35;3.58;;;7.80;99.90;;;;;;5012010;28;20046;-76
2021/12/24 09:50:57;;;;;;;6.78;3.13;;;7.70;99.90;;;;;;5011583;28;20133;-75
2021/12/24 09:53:23;;;;;;;11.43;3.05;;;7.80;99.90;;;;;;4980007;28;20127;-80
2021/12/24 09:55:49;;;;;;;6.60;2.42;;;7.80;99.90;;;;;;4994448;28;20041;-79
2021/12/24 09:58:15;;;;;;;5.13;2.20;;;7.80;99.90;;;;;;4977986;28;20045;-75
2021/12/24 10:00:40;;;;;;;6.50;2.47;;;7.60;99.90;;;;;;4994489;28;20413;-80
2021/12/24 10:03:06;;;;;;;2.78;1.67;;;7.40;99.90;;;;;;4994014;28;20553;-82
2021/12/24 10:05:40;;;;;;;6.13;2.00;;;7.70;99.90;;;;;;4994410;28;20038;-80
2021/12/24 10:08:09;;;;;;;2.13;1.85;;;7.70;99.90;;;;;;5012568;28;20398;-86
2021/12/24 10:10:41;;;;;;;2.65;1.50;;;7.70;99.90;;;;;;4993054;28;20086;-85
2021/12/24 10:13:25;;;;;;;1.13;1.00;;;7.30;99.90;;;;;;4994949;28;20072;-84
2021/12/24 10:16:08;;;;;;;1.35;1.23;;;7.50;99.90;;;;;;4994344;28;20057;-80
2021/12/24 10:18:47;;;;;;;2.28;1.10;;;7.40;99.90;;;;;;5022440;28;20509;-84
2021/12/24 10:21:22;;;;;;;1.67;1.52;;;7.30;99.90;;;;;;5021178;28;20121;-84
2021/12/24 10:23:56;;;;;;;2.28;1.27;;;7.20;99.90;;;;;;4996020;28;20045;-85
2021/12/24 10:26:37;;;;;;;1.55;1.45;;;6.90;99.90;;;;;;4994510;28;20033;-74
2021/12/24 10:29:19;;;;;;;1.80;1.50;;;7.10;99.90;;;;;;4983431;28;20108;-84
2021/12/24 10:31:50;;;;;;;2.03;1.92;;;7.00;99.90;;;;;;4976837;28;20046;-85
2021/12/24 10:34:34;;;;;;;1.63;1.52;;;7.00;99.90;;;;;;4995101;28;20172;-79
2021/12/24 10:37:07;;;;;;;1.92;1.83;;;6.80;99.90;;;;;;4977870;28;20045;-77
2021/12/24 10:39:33;;;;;;;1.83;1.67;;;6.90;99.90;;;;;;4985708;28;20181;-77
2021/12/24 10:42:00;;;;;;;3.03;2.13;;;6.90;99.90;;;;;;5003357;28;20544;-81
2021/12/24 10:44:33;;;;;;;1.92;1.83;;;6.30;99.90;;;;;;5003827;28;20405;-85
2021/12/24 10:47:12;;;;;;;2.15;1.85;;;6.80;99.90;;;;;;4993460;28;20054;-76
2021/12/24 10:49:58;;;;;;;2.58;1.90;;;6.70;99.90;;;;;;5003085;28;20417;-78
2021/12/24 10:55:11;;;;;;;1.92;1.83;;;6.30;99.90;;;;;;4994086;28;20461;-75
2021/12/24 10:57:40;;;;;;;2.17;1.98;;;6.50;99.90;;;;;;5002874;28;20084;-75
2021/12/24 11:00:22;;;;;;;2.13;1.92;;;6.60;99.90;;;;;;4984727;28;20120;-75
2021/12/24 11:02:51;;;;;;;1.83;1.65;;;6.60;99.90;;;;;;5002129;28;20049;-81
2021/12/24 11:05:30;;;;;;;4.72;1.38;;;6.50;99.90;;;;;;4993496;28;20042;-75
2021/12/24 11:07:58;;;;;;;1.75;1.65;;;6.50;99.90;;;;;;4994858;28;20490;-80
2021/12/24 11:10:26;;;;;;;1.40;1.30;;;6.50;99.90;;;;;;4998012;28;20486;-81
2021/12/24 11:13:11;;;;;;;1.77;1.27;;;6.50;99.90;;;;;;4992437;28;20057;-79
2021/12/24 11:15:39;;;;;;;2.95;1.35;;;7.40;99.90;;;;;;5005724;28;20050;-81
2021/12/24 11:18:23;;;;;;;2.30;2.10;;;6.40;99.90;;;;;;4996150;28;20133;-75
2021/12/24 11:21:03;;;;;;;17.92;12.90;;;6.40;99.90;;;;;;5003827;28;20081;-81
2021/12/24 11:23:31;;;;;;;3.83;2.55;;;6.40;99.90;;;;;;4993210;28;20103;-80
2021/12/24 11:26:17;;;;;;;4.07;1.73;;;6.40;99.90;;;;;;4994121;28;20042;-77
2021/12/24 11:28:44;;;;;;;2.42;1.58;;;6.40;99.90;;;;;;4994121;28;20046;-80
2021/12/24 11:31:13;;;;;;;7.57;1.90;;;6.40;99.90;;;;;;4993592;28;20053;-86
2021/12/24 11:33:42;;;;;;;1.17;1.05;;;6.50;99.90;;;;;;4993188;28;20038;-80
2021/12/24 11:36:09;;;;;;;1.55;1.45;;;6.40;99.90;;;;;;4992807;28;20054;-85
2021/12/24 11:38:41;;;;;;;1.38;1.27;;;6.00;99.90;;;;;;4993015;28;20046;-87
2021/12/24 11:41:12;;;;;;;1.42;1.33;;;6.50;99.90;;;;;;4977285;28;20041;-86
2021/12/24 11:43:40;;;;;;;1.50;1.25;;;6.30;99.90;;;;;;4985851;28;20053;-85
2021/12/24 11:46:08;;;;;;;1.20;1.15;;;5.90;99.90;;;;;;4997706;28;20505;-84
2021/12/24 11:48:35;;;;;;;1.95;1.73;;;6.30;99.90;;;;;;4971734;28;20497;-79
2021/12/24 11:51:04;;;;;;;1.45;1.35;;;6.40;99.90;;;;;;4980714;28;20061;-77
2021/12/24 11:53:31;;;;;;;1.85;1.52;;;5.80;99.90;;;;;;4979850;28;20184;-82
2021/12/24 11:56:07;;;;;;;1.75;1.52;;;6.20;99.90;;;;;;4979117;28;20053;-84
2021/12/24 11:58:49;;;;;;;1.70;1.40;;;6.30;99.90;;;;;;4994810;28;20063;-85
2021/12/24 12:01:17;;;;;;;1.45;1.35;;;6.30;99.90;;;;;;5027551;28;20054;-84
2021/12/24 12:03:53;;;;;;;1.65;1.55;;;6.20;99.90;;;;;;4979623;28;20060;-86
2021/12/24 12:06:22;;;;;;;1.60;1.50;;;6.20;99.90;;;;;;4288737;28;10001232;-83
2021/12/24 12:08:50;;;;;;;2.35;1.92;;;5.80;99.90;;;;;;4997801;28;20128;-78
2021/12/24 12:11:19;;;;;;;1.75;1.50;;;5.90;99.90;;;;;;4984558;28;20042;-75
2021/12/24 12:13:57;;;;;;;1.40;1.30;;;5.70;99.90;;;;;;4994484;28;20048;-81
2021/12/24 12:16:44;;;;;;;1.60;1.50;;;6.30;99.90;;;;;;4977145;28;20049;-81
2021/12/24 12:19:16;;;;;;;2.97;1.67;;;6.00;99.90;;;;;;4997664;28;20089;-75
2021/12/24 12:24:57;;;;;;;1.63;1.52;;;6.20;99.90;;;;;;5034183;28;20041;-83
2021/12/24 12:27:34;;;;;;;2.15;2.03;;;7.10;99.90;;;;;;4999312;28;20049;-83
2021/12/24 12:30:19;;;;;;;1.65;1.55;;;6.20;99.90;;;;;;4993607;28;20401;-79
2021/12/24 12:32:45;;;;;;;;;;;5.80;99.90;;;;;;4993560;28;20474;-77
2021/12/24 12:35:12;;;;;;;2.08;1.90;;;6.00;99.90;;;;;;5001287;28;19972;-84
2021/12/24 12:37:50;;;;;;;2.45;1.85;;;5.50;99.90;;;;;;4983585;28;20053;-84
2021/12/24 12:40:16;;;;;;;2.35;2.15;;;6.20;99.90;;;;;;5010913;28;20050;-76
2021/12/24 12:42:51;;;;;;;1.90;1.80;;;6.10;99.90;;;;;;5015702;28;20425;-85
2021/12/24 12:45:20;;;;;;;2.05;1.88;;;5.50;99.90;;;;;;4976815;28;20108;-85
2021/12/24 12:47:57;;;;;;;2.05;1.80;;;6.10;99.90;;;;;;5013268;28;20050;-78
2021/12/24 12:50:25;;;;;;;2.90;2.65;;;6.00;99.90;;;;;;4983811;28;20049;-78
2021/12/24 12:52:54;;;;;;;2.75;2.55;;;6.10;99.90;;;;;;4994205;28;20069;-79
2021/12/24 12:55:32;;;;;;;2.60;2.40;;;6.20;99.90;;;;;;4997270;28;20045;-76
2021/12/24 12:58:24;;;;;;;3.20;2.13;;;7.90;99.90;;;;;;5000475;28;20120;-75
2021/12/24 13:01:03;;;;;;;2.30;2.10;;;6.20;99.90;;;;;;4969908;28;20042;-76
2021/12/24 13:03:29;;;;;;;7.40;5.13;;;6.20;99.90;;;;;;4986214;28;20050;-76
2021/12/24 13:06:02;;;;;;;3.60;3.30;;;6.20;99.90;;;;;;4997381;28;20045;-77
2021/12/24 13:08:32;;;;;;;3.10;2.80;;;6.30;99.90;;;;;;4982299;28;20489;-78
2021/12/24 13:11:20;;;;;;;6.65;3.10;;;6.20;99.90;;;;;;4992826;28;20045;-78
2021/12/24 13:13:55;;;;;;;3.10;2.80;;;6.20;99.90;;;;;;4995710;28;20124;-78
2021/12/24 13:16:34;;;;;;;3.95;2.50;;;6.20;99.90;;;;;;4956763;28;20062;-75
2021/12/24 13:24:49;;;;;;;10.43;4.82;;;6.30;99.90;;;;;;4971706;28;20438;-76
2021/12/24 13:27:15;;;;;;;14.05;7.93;;;6.30;99.90;;;;;;4969883;28;20049;-79
2021/12/24 13:29:41;;;;;;;9.48;5.75;;;6.30;99.90;;;;;;4975997;28;20047;-77
2021/12/24 13:32:07;;;;;;;8.02;4.38;;;6.30;99.90;;;;;;4970294;28;20038;-78
2021/12/24 13:34:33;;;;;;;6.78;4.97;;;6.30;99.90;;;;;;4985285;28;20058;-76
2021/12/24 13:37:11;;;;;;;5.88;4.10;;;6.30;99.90;;;;;;4954020;28;20047;-78
2021/12/24 13:39:45;;;;;;;7.47;2.80;;;6.20;99.90;;;;;;4954568;28;20113;-78
2021/12/24 13:42:11;;;;;;;2.08;1.88;;;6.30;99.90;;;;;;4974526;28;20456;-79
2021/12/24 13:44:38;;;;;;;2.67;2.20;;;6.30;99.90;;;;;;4974798;28;20053;-75
2021/12/24 13:47:59;;;;;;;3.90;2.33;;;6.20;99.90;;;;;;4976451;28;20128;-77
2021/12/24 13:55:31;;;;;;;3.50;2.35;;;6.10;99.90;;;;;;4993532;28;20054;-77
2021/12/24 13:58:03;;;;;;;2.33;1.85;;;6.00;99.90;;;;;;4958087;28;20058;-79
2021/12/24 14:00:30;;;;;;;2.33;2.17;;;6.10;99.90;;;;;;4970515;28;20058;-79
2021/12/24 14:02:59;;;;;;;3.28;2.97;;;6.00;99.90;;;;;;4954896;28;20042;-78
2021/12/24 14:05:26;;;;;;;2.30;2.10;;;6.00;99.90;;;;;;4971118;28;20266;-78
2021/12/24 14:08:06;;;;;;;6.07;1.98;;;4.40;99.90;;;;;;4953355;28;20046;-78
2021/12/24 14:10:32;;;;;;;2.85;1.85;;;6.00;99.90;;;;;;4977522;28;20085;-79
2021/12/24 14:13:05;;;;;;;2.90;1.98;;;6.00;99.90;;;;;;4971004;28;20066;-77
2021/12/24 14:15:32;;;;;;;3.22;1.90;;;5.90;99.90;;;;;;5001533;28;20501;-77
2021/12/24 14:18:22;;;;;;;2.42;1.92;;;6.00;99.90;;;;;;4993318;28;20053;-77
2021/12/24 14:21:44;;;;;;;2.30;2.10;;;6.00;99.90;;;;;;5001641;28;20057;-75
2021/12/24 14:23:33;;;;;;;4.35;2.05;;;5.80;99.90;;;;;;5023929;28;20085;-79
2021/12/24 14:26:01;;;;;;;1.95;1.75;;;5.90;99.90;;;;;;4992452;28;20131;-79
2021/12/24 14:28:27;;;;;;;2.85;1.80;;;5.90;99.90;;;;;;4997501;28;20052;-79
2021/12/24 14:31:04;;;;;;;3.22;1.90;;;5.90;99.90;;;;;;4992474;28;20042;-79
2021/12/24 14:33:35;;;;;;;3.72;2.58;;;6.00;99.90;;;;;;4994739;28;20633;-78
2021/12/24 14:36:02;;;;;;;3.95;2.30;;;5.90;99.90;;;;;;5009561;28;20057;-75
2021/12/24 14:38:28;;;;;;;6.95;3.05;;;5.90;99.90;;;;;;4994576;28;20041;-76
2021/12/24 14:40:59;;;;;;;3.65;2.67;;;5.90;99.90;;;;;;5002334;28;20046;-74
2021/12/24 14:43:26;;;;;;;6.13;2.50;;;5.80;99.90;;;;;;5002535;28;20057;-76
2021/12/24 14:45:53;;;;;;;7.38;4.13;;;5.90;99.90;;;;;;4999531;28;20182;-76